Aeroporto :
LOGIN :

Iscrizione | Disclaimer

   EN    FR    IT 

 










Sommario :    VFR   VFR Marginale   IFR   IFR Intensivo   IFR Molto Intensivo
Visibilità : 
Base nubi : 
>= 8 km
>= 3000ft
5 / 8 km
1000 / 3000 ft
1500m / 5 km
500 / 1000 ft
800 / 1500m
200 / 500 ft
< 800m
< 200 ft
Simboli :   Temporali  Nebbia  Neve Forte  Precipitazioni Forti  Vento > 20 kt
SIGMETs :   Varie  Temporali  Ghiacco  Turbolenza  Onda orograficha  Ceneri Vulcaniche







- Altitudine del aeroporto : 12 ft
- Codice IATA : BCN


LEBL - Barcelone

ULTIMO METAR :
  • 120600Z 33010KT 9999 FEW025 08/05 Q1019 NOSIG

METARs OBSOLETI :
  • 120530Z 33009KT 9999 FEW020 07/05 Q1019 NOSIG
  • 120500Z 33010KT 9999 FEW022 07/05 Q1019 NOSIG
  • 120430Z 33010KT 9999 FEW018 08/05 Q1019 NOSIG
  • 120400Z 33009KT 310V010 9999 FEW019 08/05 Q1019 NOSIG
  • 120330Z 34008KT 310V010 9000 FEW017 07/05 Q1019 NOSIG
  • 120300Z 33009KT 9000 NSC 07/05 Q1019 NOSIG

TAF TAF LEBL
Valido dal 12 a 06 ore il 13 a 06 ore UTC


120500Z 1206/1306 34007KT 9999 FEW025 TX15/1212Z TN07/1306Z
TEMPO 1206/1210 34010G22KT
TEMPO 1212/1219 VRB04KT
Nessun NOTAM noto per questo aeroporto.



MetMap, La meteo Aeronautica in un colpo d'occhio ! - Copyright ORBIFLY Dicembre 2007 - Disclaimer

ORBIFLY MET'MAP TEAM :

Programmazione e sviluppo : Alexandra Zaïnal
Concezione e sviluppo : Baudouin d'Aumeries
Co-Programmazione e sviluppo : Marc-Olivier Méhu
Supporto tecnico e logistico : Manuel Goepfert
Aiuto per la traduzione : Arnaldo La Scala

Contatto : metmap@orbifly.com




FONTI E CREDITI :

   NOAA